Time;durP1;ratioP1;P1;durP2;ratioP2;P2;SDS_P1;SDS_P2;PMS_P1;PMS_P2;Temp;Humidity;BMP_temperature;BMP_pressure;BME280_temperature;BME280_humidity;BME280_pressure;Samples;Min_cycle;Max_cycle;Signal;HPM_P1;HPM_P2
2021/05/10 00:00:03;;;;;;;5.93;4.47;;;;;;;9.85;59.40;98862.95;2212345;79;22946;-78
2021/05/10 00:03:18;;;;;;;7.23;4.90;;;;;;;9.84;59.29;98861.19;2295916;77;22845;-81
2021/05/10 00:06:28;;;;;;;8.47;4.67;;;;;;;9.84;59.32;98856.41;2296001;77;22541;-78
2021/05/10 00:09:38;;;;;;;6.77;4.83;;;;;;;9.80;59.48;98857.22;2212078;79;22659;-78
2021/05/10 00:12:48;;;;;;;7.50;4.60;;;;;;;9.78;59.21;98864.14;2281240;78;23077;-78
2021/05/10 00:16:04;;;;;;;7.33;4.53;;;;;;;9.77;59.29;98857.17;2268453;78;22778;-77
2021/05/10 00:19:20;;;;;;;8.57;5.03;;;;;;;9.74;59.29;98857.13;2268697;78;22441;-79
2021/05/10 00:22:30;;;;;;;6.63;4.20;;;;;;;9.68;59.25;98850.09;2212219;79;23423;-78
2021/05/10 00:25:40;;;;;;;7.27;4.30;;;;;;;9.63;59.42;98845.66;2212204;79;23047;-79
2021/05/10 00:28:50;;;;;;;5.07;4.40;;;;;;;9.60;59.69;98843.00;2261545;78;22823;-78
2021/05/10 00:32:00;;;;;;;7.27;4.20;;;;;;;9.57;59.64;98847.73;2260363;77;22920;-79
2021/05/10 00:35:11;;;;;;;6.03;5.12;;;;;;;9.55;59.49;98842.50;2241551;79;38314;-78
2021/05/10 00:38:23;;;;;;;9.20;4.50;;;;;;;9.79;58.89;98847.64;2296384;77;22471;-78
2021/05/10 00:41:38;;;;;;;5.23;4.03;;;;;;;9.70;59.28;98848.81;2308094;75;23591;-79
2021/05/10 00:44:49;;;;;;;5.05;4.50;;;;;;;9.64;59.34;98843.50;2279327;77;27998;-78
2021/05/10 00:48:01;;;;;;;7.57;4.40;;;;;;;9.85;58.62;98839.48;2270069;78;22193;-78
2021/05/10 00:51:23;;;;;;;6.25;4.87;;;;;;;9.75;58.81;98842.81;2282397;77;28019;-78
2021/05/10 00:54:52;;;;;;;8.83;4.60;;;;;;;9.89;58.35;98834.77;2249637;78;22924;-79
2021/05/10 00:58:02;;;;;;;5.33;3.80;;;;;;;9.76;58.67;98834.56;2212527;79;22593;-79
2021/05/10 01:01:12;;;;;;;9.73;4.00;;;;;;;9.73;58.80;98838.42;2212574;79;22710;-79
2021/05/10 01:04:22;;;;;;;8.00;3.70;;;;;;;9.69;58.89;98834.02;2301706;77;23177;-78
2021/05/10 01:07:38;;;;;;;6.23;3.83;;;;;;;9.67;58.95;98827.91;2302419;77;23194;-79
2021/05/10 01:11:03;;;;;;;6.33;3.93;;;;;;;9.64;58.70;98829.17;2298236;77;22545;-78
2021/05/10 01:14:12;;;;;;;4.47;3.40;;;;;;;9.57;58.82;98833.41;2261886;79;22643;-78
2021/05/10 01:17:25;;;;;;;8.57;4.20;;;;;;;9.55;58.94;98835.11;2212181;79;22562;-79
2021/05/10 01:20:35;;;;;;;5.97;3.40;;;;;;;9.53;58.74;98828.55;2275418;77;22861;-78
2021/05/10 01:23:47;;;;;;;5.40;3.90;;;;;;;9.49;58.86;98824.13;2290686;77;38422;-81
2021/05/10 01:27:03;;;;;;;6.20;3.30;;;;;;;9.73;58.27;98831.91;2268565;78;22804;-79
2021/05/10 01:30:14;;;;;;;5.77;3.13;;;;;;;9.63;58.39;98824.81;2261609;79;22813;-79
2021/05/10 01:33:23;;;;;;;6.77;3.60;;;;;;;9.57;58.34;98822.56;2298763;77;22862;-79
2021/05/10 01:36:35;;;;;;;4.75;3.83;;;;;;;9.70;57.75;98824.05;2278857;77;28166;-78
2021/05/10 01:39:45;;;;;;;6.33;3.97;;;;;;;9.73;57.88;98820.18;2296093;77;22670;-79
2021/05/10 01:43:01;;;;;;;5.80;3.63;;;;;;;9.60;58.08;98814.34;2260016;77;22569;-78
2021/05/10 01:46:10;;;;;;;11.07;4.20;;;;;;;9.53;58.18;98822.03;2295992;77;22336;-78
2021/05/10 01:49:24;;;;;;;6.47;3.47;;;;;;;9.49;58.21;98825.44;2212519;79;22847;-78
2021/05/10 01:52:34;;;;;;;5.03;3.57;;;;;;;9.42;58.27;98826.19;2281070;78;22839;-79
2021/05/10 01:55:44;;;;;;;6.17;3.07;;;;;;;9.35;58.30;98831.28;2296100;77;22851;-79
2021/05/10 01:59:00;;;;;;;5.00;3.27;;;;;;;9.30;58.45;98829.02;2268727;78;22956;-80
2021/05/10 02:02:09;;;;;;;6.30;3.00;;;;;;;9.24;58.57;98828.50;2281806;77;23240;-79
2021/05/10 02:05:29;;;;;;;100.87;10.13;;;;;;;9.20;58.68;98831.90;2268942;78;22647;-80
2021/05/10 02:08:38;;;;;;;7.63;3.60;;;;;;;9.14;58.95;98825.29;2296142;77;22853;-79
2021/05/10 02:11:57;;;;;;;5.40;3.27;;;;;;;9.11;58.84;98827.41;2268598;78;22798;-77
2021/05/10 02:15:10;;;;;;;528.43;145.03;;;;;;;9.10;61.78;98830.87;2298283;77;22841;-80
2021/05/10 02:18:22;;;;;;;29.80;7.47;;;;;;;11.84;60.98;98820.37;2296440;77;22456;-79
2021/05/10 02:21:33;;;;;;;15.83;4.00;;;;;;;12.24;54.08;98826.73;2298959;77;23183;-80
2021/05/10 02:24:43;;;;;;;4.37;3.20;;;;;;;11.45;53.85;98828.34;2262073;79;22844;-79
2021/05/10 02:27:53;;;;;;;3.60;3.00;;;;;;;10.84;54.28;98838.19;2296604;77;23249;-79
2021/05/10 02:31:02;;;;;;;5.07;3.07;;;;;;;10.38;54.96;98839.79;2275089;77;22897;-79
2021/05/10 02:34:12;;;;;;;6.67;3.10;;;;;;;10.04;55.56;98840.63;2262084;79;22787;-79
2021/05/10 02:47:49;;;;;;;8.87;3.50;;;;;;;9.18;57.61;98846.62;2256454;79;22924;-79
2021/05/10 02:50:59;;;;;;;3.73;3.20;;;;;;;9.07;57.83;98842.53;2212857;79;23060;-78
2021/05/10 02:54:09;;;;;;;4.07;3.60;;;;;;;9.01;58.03;98847.63;2275282;77;22578;-78
2021/05/10 02:57:27;;;;;;;3.63;3.20;;;;;;;8.97;58.28;98852.75;2259786;77;22935;-78
2021/05/10 03:00:37;;;;;;;49.57;6.43;;;;;;;8.90;58.49;98855.25;2260206;77;23191;-79
2021/05/10 03:03:47;;;;;;;3.80;3.43;;;;;;;8.86;58.50;98852.56;2274863;77;22650;-79
2021/05/10 03:06:56;;;;;;;6.50;3.70;;;;;;;8.83;58.64;98860.31;2261455;79;22820;-79
2021/05/10 03:10:09;;;;;;;6.73;3.47;;;;;;;8.81;58.78;98863.30;2257529;79;22645;-79
2021/05/10 03:13:19;;;;;;;4.00;3.30;;;;;;;8.77;59.04;98859.77;2275628;77;22859;-81
2021/05/10 03:16:34;;;;;;;4.43;3.70;;;;;;;8.77;59.03;98862.38;2307772;76;22177;-79
2021/05/10 03:19:58;;;;;;;9.70;3.97;;;;;;;8.81;59.41;98864.19;2261780;79;21946;-79
2021/05/10 03:23:08;;;;;;;12.67;4.57;;;;;;;8.83;59.17;98864.21;2261785;79;22827;-80
2021/05/10 03:26:27;;;;;;;6.23;4.13;;;;;;;8.84;59.32;98864.66;2281184;78;22243;-79
2021/05/10 03:29:43;;;;;;;4.60;4.03;;;;;;;8.87;59.07;98860.39;2260697;77;22847;-79
2021/05/10 03:32:56;;;;;;;56.27;7.73;;;;;;;8.90;59.15;98864.36;2294234;77;23155;-79
2021/05/10 03:36:18;;;;;;;7.23;3.63;;;;;;;9.07;59.09;98859.88;2311302;77;22249;-80
2021/05/10 03:39:37;;;;;;;5.97;4.13;;;;;;;9.10;58.82;98859.94;2298863;77;22845;-80
2021/05/10 03:42:49;;;;;;;5.00;4.23;;;;;;;9.09;58.74;98861.66;2295849;77;21683;-78
2021/05/10 03:46:02;;;;;;;6.40;4.10;;;;;;;9.17;58.67;98864.41;2301281;77;23442;-79
2021/05/10 03:49:12;;;;;;;6.07;4.00;;;;;;;9.25;58.73;98862.81;2260170;77;23176;-79
2021/05/10 03:52:25;;;;;;;6.03;3.53;;;;;;;9.32;58.59;98859.45;2208587;79;22901;-78
2021/05/10 04:06:22;;;;;;;5.63;3.50;;;;;;;9.70;58.08;98860.53;2266495;79;23028;-79
2021/05/10 04:09:42;;;;;;;5.40;3.40;;;;;;;9.87;57.82;98865.16;2296036;77;22870;-80
2021/05/10 04:16:17;;;;;;;11.63;4.30;;;;;;;10.36;56.92;98867.59;2293888;77;22479;-80
2021/05/10 04:19:27;;;;;;;6.13;3.43;;;;;;;10.58;56.48;98859.64;2261287;79;22544;-79
2021/05/10 04:22:38;;;;;;;9.33;3.83;;;;;;;10.71;55.98;98857.19;2261757;79;22770;-78
2021/05/10 04:25:48;;;;;;;94.40;9.70;;;;;;;10.89;55.78;98853.91;2189217;79;31025;-81
2021/05/10 04:29:05;;;;;;;6.57;3.47;;;;;;;11.45;54.75;98854.47;2302503;77;23203;-80
2021/05/10 04:32:22;;;;;;;5.63;3.30;;;;;;;11.70;54.31;98850.31;2275563;77;23829;-79
2021/05/10 04:35:39;;;;;;;17.67;4.03;;;;;;;11.94;53.42;98848.33;2296072;77;22754;-79
2021/05/10 04:38:49;;;;;;;7.50;3.30;;;;;;;12.15;53.44;98854.59;2260742;77;22895;-79
2021/05/10 04:41:59;;;;;;;9.80;3.15;;;;;;;12.43;52.61;98853.86;2212157;79;22922;-79
2021/05/10 04:45:09;;;;;;;12.88;3.37;;;;;;;12.69;52.14;98855.28;2212722;78;23196;-80
2021/05/10 04:48:28;;;;;;;7.95;3.40;;;;;;;12.92;51.17;98863.20;2296129;77;23166;-80
2021/05/10 04:51:47;;;;;;;4.00;2.85;;;;;;;13.13;50.76;98864.60;2261342;79;23252;-79
2021/05/10 04:54:59;;;;;;;5.20;3.37;;;;;;;13.38;50.21;98862.92;2296602;77;22516;-77
2021/05/10 04:58:09;;;;;;;4.70;3.35;;;;;;;13.61;49.79;98855.06;2238580;79;27950;-78
2021/05/10 05:01:25;;;;;;;7.65;3.37;;;;;;;14.02;47.52;98859.86;2261270;79;23169;-79
2021/05/10 05:04:36;;;;;;;4.72;2.95;;;;;;;14.13;48.33;98855.91;2237691;78;38279;-80
2021/05/10 05:07:48;;;;;;;3.60;3.10;;;;;;;14.60;47.27;98859.72;2278646;77;28030;-79
2021/05/10 05:10:58;;;;;;;5.55;3.65;;;;;;;14.86;45.89;98853.50;2260516;77;22409;-80
2021/05/10 05:14:14;;;;;;;12.58;3.02;;;;;;;14.82;46.20;98868.42;2210710;79;22920;-79
2021/05/10 05:17:25;;;;;;;5.10;3.10;;;;;;;14.80;45.35;98862.73;2298720;77;23145;-80
2021/05/10 05:20:37;;;;;;;9.90;4.10;;;;;;;14.84;45.65;98870.59;2275834;77;27929;-80
2021/05/10 05:23:46;;;;;;;4.03;3.02;;;;;;;15.22;44.81;98866.44;2273865;77;28140;-79
2021/05/10 05:26:57;;;;;;;3.22;2.83;;;;;;;15.52;44.80;98871.92;2296357;77;22840;-80
2021/05/10 05:30:09;;;;;;;4.65;3.02;;;;;;;15.56;45.01;98872.77;2260579;77;22950;-80
2021/05/10 05:33:28;;;;;;;8.00;3.33;;;;;;;15.67;44.42;98861.78;2261186;79;22951;-79
2021/05/10 05:36:38;;;;;;;6.15;3.40;;;;;;;15.70;44.12;98865.70;2296402;77;22595;-80
2021/05/10 05:39:52;;;;;;;4.60;3.00;;;;;;;15.75;43.95;98860.41;2260181;77;22872;-80
2021/05/10 05:43:03;;;;;;;5.53;3.02;;;;;;;15.85;43.90;98862.94;2296479;77;22746;-79
2021/05/10 05:46:15;;;;;;;51.02;6.97;;;;;;;16.01;44.00;98860.16;2193050;79;38707;-79
2021/05/10 05:49:25;;;;;;;4.22;3.50;;;;;;;16.35;42.62;98862.88;2279357;77;28024;-80
2021/05/10 05:52:37;;;;;;;4.53;2.90;;;;;;;16.73;42.25;98868.20;2296444;77;22830;-79
2021/05/10 05:55:48;;;;;;;4.50;2.90;;;;;;;16.73;42.24;98859.85;2301425;77;22531;-80
2021/05/10 05:58:57;;;;;;;9.00;3.20;;;;;;;16.77;42.49;98860.69;2275652;77;23008;-79
2021/05/10 06:02:08;;;;;;;6.05;3.98;;;;;;;16.85;42.21;98861.45;2261908;79;22840;-79
2021/05/10 06:05:21;;;;;;;9.63;5.08;;;;;;;17.02;42.01;98862.10;2296682;77;22529;-78
2021/05/10 06:08:32;;;;;;;8.95;4.05;;;;;;;17.25;42.09;98859.59;2212628;79;23657;-77
2021/05/10 06:11:42;;;;;;;6.28;3.00;;;;;;;18.20;42.21;98858.48;2275396;77;22908;-79
2021/05/10 06:14:51;;;;;;;7.20;2.90;;;;;;;18.31;39.65;98853.03;2212736;79;23230;-79
2021/05/10 06:18:08;;;;;;;3.80;3.02;;;;;;;18.17;39.46;98848.43;2260862;77;22640;-79
2021/05/10 06:21:18;;;;;;;4.37;3.00;;;;;;;18.14;40.13;98853.32;2242068;79;27713;-80
2021/05/10 06:24:28;;;;;;;4.55;3.02;;;;;;;18.55;39.41;98848.59;2296340;77;23163;-80
2021/05/10 06:27:44;;;;;;;3.95;2.67;;;;;;;18.67;39.04;98852.79;2397607;74;22849;-79
2021/05/10 06:30:55;;;;;;;4.65;2.62;;;;;;;18.84;39.13;98845.38;2296137;77;22879;-80
2021/05/10 06:34:07;;;;;;;4.37;3.12;;;;;;;18.83;37.87;98846.28;2211441;79;21416;-80
2021/05/10 06:37:20;;;;;;;3.72;2.72;;;;;;;18.89;38.80;98839.53;2213177;79;22413;-80
2021/05/10 06:40:30;;;;;;;3.05;2.75;;;;;;;19.09;37.11;98833.83;2212791;79;23069;-79
2021/05/10 06:43:40;;;;;;;17.35;3.70;;;;;;;19.21;38.08;98845.46;2275466;77;22829;-78
2021/05/10 06:46:50;;;;;;;4.58;2.50;;;;;;;19.49;37.33;98835.09;2262359;79;23101;-79
2021/05/10 06:50:00;;;;;;;8.15;2.85;;;;;;;19.71;36.96;98839.44;2212598;79;22921;-80
2021/05/10 06:53:11;;;;;;;4.95;2.72;;;;;;;19.89;36.18;98832.80;2213530;79;22908;-80
2021/05/10 06:56:24;;;;;;;4.15;2.47;;;;;;;19.85;36.18;98826.72;2296536;77;22844;-80
2021/05/10 06:59:33;;;;;;;3.95;2.35;;;;;;;20.03;36.02;98824.08;2261793;78;22811;-79
2021/05/10 07:02:43;;;;;;;2.65;2.45;;;;;;;20.30;36.03;98821.13;2296326;77;23259;-79
2021/05/10 07:05:54;;;;;;;8.50;3.30;;;;;;;20.56;35.27;98826.59;2299079;77;23390;-80
2021/05/10 07:09:04;;;;;;;2.95;2.40;;;;;;;20.79;34.82;98825.92;2255183;79;22915;-81
2021/05/10 07:12:14;;;;;;;7.85;2.55;;;;;;;20.83;34.61;98830.26;2260315;77;22388;-79
2021/05/10 07:15:23;;;;;;;3.40;2.95;;;;;;;21.05;35.75;98831.81;2298876;77;22870;-79
2021/05/10 07:18:33;;;;;;;5.55;2.40;;;;;;;21.25;33.87;98820.60;2296545;77;22379;-79
2021/05/10 07:21:50;;;;;;;7.00;2.30;;;;;;;21.33;34.23;98829.20;2397928;74;22844;-78
2021/05/10 07:25:02;;;;;;;23.27;4.15;;;;;;;21.35;33.57;98827.81;2260602;77;23004;-79
2021/05/10 07:28:12;;;;;;;3.65;2.27;;;;;;;21.38;34.19;98821.08;2213076;79;22942;-79
2021/05/10 07:31:24;;;;;;;3.87;2.30;;;;;;;21.42;33.75;98814.30;2193046;79;38388;-80
2021/05/10 07:34:34;;;;;;;4.45;2.22;;;;;;;21.77;32.22;98807.84;2213117;79;22875;-80
2021/05/10 07:37:44;;;;;;;3.85;2.12;;;;;;;21.58;32.59;98808.89;2299062;77;23157;-79
2021/05/10 07:40:54;;;;;;;4.28;2.40;;;;;;;21.57;33.36;98819.56;2261832;79;22808;-80
2021/05/10 07:44:04;;;;;;;3.92;2.50;;;;;;;21.77;33.32;98830.89;2262027;79;22935;-79
2021/05/10 07:47:14;;;;;;;4.92;2.55;;;;;;;21.92;33.32;98823.27;2212915;79;23190;-79
2021/05/10 07:50:32;;;;;;;5.33;2.67;;;;;;;22.17;32.02;98822.44;2276101;77;23638;-81
2021/05/10 07:53:45;;;;;;;3.12;2.30;;;;;;;22.21;32.97;98828.06;2213275;79;22921;-79
2021/05/10 07:56:55;;;;;;;3.70;2.35;;;;;;;22.36;33.31;98827.97;2262795;79;22253;-80
2021/05/10 08:00:07;;;;;;;2.08;1.92;;;;;;;22.58;32.77;98831.62;2276032;77;22570;-81
2021/05/10 08:03:17;;;;;;;6.75;2.62;;;;;;;22.67;32.02;98815.78;2239408;79;27974;-79
2021/05/10 08:06:33;;;;;;;4.58;2.60;;;;;;;22.86;31.65;98815.05;2303084;77;23204;-79
2021/05/10 08:09:45;;;;;;;2.52;2.20;;;;;;;22.67;31.24;98824.63;2259174;79;22217;-80
2021/05/10 08:12:55;;;;;;;2.55;2.22;;;;;;;22.75;31.34;98811.91;2213574;79;22471;-79
2021/05/10 08:16:11;;;;;;;4.40;1.87;;;;;;;22.67;30.92;98816.64;2211157;79;22905;-79
2021/05/10 08:19:20;;;;;;;3.33;1.87;;;;;;;22.77;30.21;98814.04;2213192;79;23009;-81
2021/05/10 08:22:36;;;;;;;3.15;2.00;;;;;;;22.77;29.99;98816.70;2269874;78;22471;-79
2021/05/10 08:25:49;;;;;;;2.35;1.77;;;;;;;22.75;30.21;98809.70;2213480;79;23192;-80
2021/05/10 08:28:59;;;;;;;3.92;2.30;;;;;;;23.02;30.01;98814.00;2277532;77;27917;-79
2021/05/10 08:32:08;;;;;;;2.17;2.00;;;;;;;23.42;29.09;98809.31;2214212;79;22955;-79
2021/05/10 08:35:18;;;;;;;6.33;1.90;;;;;;;23.24;29.13;98798.05;2214428;79;22880;-79
2021/05/10 08:38:30;;;;;;;2.83;1.85;;;;;;;23.18;28.40;98788.97;2259894;79;22199;-80
2021/05/10 08:41:40;;;;;;;3.37;1.90;;;;;;;23.23;28.25;98810.95;2213676;79;22887;-79
2021/05/10 08:44:49;;;;;;;2.65;1.80;;;;;;;23.22;28.87;98816.34;2264038;79;22784;-81
2021/05/10 08:48:00;;;;;;;3.80;2.00;;;;;;;23.39;28.66;98812.07;2213569;79;22797;-80
2021/05/10 08:51:10;;;;;;;3.67;1.70;;;;;;;23.48;28.58;98810.86;2263370;79;22797;-81
2021/05/10 08:54:19;;;;;;;2.65;1.65;;;;;;;23.70;28.52;98812.20;2213671;79;22844;-80
2021/05/10 08:57:41;;;;;;;4.40;2.10;;;;;;;23.90;28.64;98814.90;2243117;79;33010;-80
2021/05/10 09:00:52;;;;;;;3.10;1.85;;;;;;;24.30;26.94;98815.44;2213760;79;22870;-80
2021/05/10 09:04:04;;;;;;;6.22;1.90;;;;;;;24.08;27.61;98811.44;2297582;77;22620;-79
2021/05/10 09:07:13;;;;;;;4.80;2.12;;;;;;;24.15;27.81;98797.37;2213527;79;22624;-80
2021/05/10 09:10:23;;;;;;;86.47;9.98;;;;;;;24.28;27.84;98794.63;2262441;79;22791;-81
2021/05/10 09:13:32;;;;;;;1.70;1.60;;;;;;;24.44;28.09;98783.67;2213369;79;22936;-81
2021/05/10 09:16:43;;;;;;;7.00;1.90;;;;;;;24.52;27.90;98785.98;2262278;79;22775;-81
2021/05/10 09:19:58;;;;;;;5.15;1.90;;;;;;;24.54;26.87;98780.11;2297134;77;22861;-80
2021/05/10 09:23:09;;;;;;;2.98;1.65;;;;;;;24.63;26.87;98779.69;2296992;77;22828;-82
2021/05/10 09:26:18;;;;;;;3.72;1.82;;;;;;;24.71;27.22;98776.67;2275858;77;22901;-81
2021/05/10 09:29:28;;;;;;;3.10;1.52;;;;;;;24.75;26.80;98775.59;2213142;79;22930;-80
2021/05/10 09:32:41;;;;;;;3.55;1.82;;;;;;;24.88;26.81;98770.53;2262048;79;23075;-80
2021/05/10 09:35:51;;;;;;;4.58;2.05;;;;;;;25.08;27.66;98769.15;2247642;79;22809;-79
2021/05/10 09:39:01;;;;;;;3.60;1.70;;;;;;;25.29;26.77;98769.95;2260954;79;22808;-81
2021/05/10 09:42:12;;;;;;;2.70;1.82;;;;;;;25.27;26.63;98764.67;2275476;77;28192;-80
2021/05/10 09:45:25;;;;;;;2.87;1.90;;;;;;;25.51;25.84;98759.06;2296467;77;22829;-80
2021/05/10 09:48:38;;;;;;;6.50;3.40;;;;;;;25.34;26.72;98765.24;2295875;77;22504;-80
2021/05/10 09:51:51;;;;;;;2.08;1.70;;;;;;;25.35;27.70;98762.49;2295569;77;22935;-81
2021/05/10 09:55:01;;;;;;;5.30;2.10;;;;;;;25.42;27.37;98771.55;2192275;79;28216;-79
2021/05/10 09:58:11;;;;;;;5.37;1.50;;;;;;;25.78;27.28;98764.84;2298850;77;22885;-81
2021/05/10 10:01:28;;;;;;;3.10;1.60;;;;;;;25.75;27.24;98765.87;2302880;77;22933;-80
2021/05/10 10:04:39;;;;;;;2.45;2.20;;;;;;;25.74;26.89;98760.60;2276538;77;27916;-81
2021/05/10 10:07:49;;;;;;;5.42;3.15;;;;;;;26.13;26.99;98755.89;2296839;77;22822;-80
2021/05/10 10:10:58;;;;;;;245.82;17.67;;;;;;;26.17;27.20;98752.11;2296325;77;22385;-80
2021/05/10 10:14:10;;;;;;;5.22;2.20;;;;;;;25.99;27.11;98762.41;2296810;77;23145;-79
2021/05/10 10:17:20;;;;;;;5.62;2.17;;;;;;;25.95;26.79;98746.99;2276062;77;27908;-78
2021/05/10 10:20:29;;;;;;;26.73;3.83;;;;;;;26.41;25.84;98743.27;2212939;79;23205;-79
2021/05/10 10:23:39;;;;;;;3.87;1.70;;;;;;;26.30;26.70;98733.59;2262137;79;22523;-78
2021/05/10 10:26:49;;;;;;;14.95;4.08;;;;;;;26.33;26.30;98747.70;2275507;77;22915;-80
2021/05/10 10:29:59;;;;;;;1.77;1.52;;;;;;;26.37;26.53;98730.14;2213792;79;22530;-80
2021/05/10 10:33:09;;;;;;;1.70;1.60;;;;;;;26.51;26.68;98731.59;2276022;77;23069;-79
2021/05/10 10:36:19;;;;;;;1.37;1.27;;;;;;;26.66;26.01;98736.97;2213300;79;22391;-80
2021/05/10 10:39:33;;;;;;;3.75;2.00;;;;;;;26.68;25.60;98726.66;2275859;77;22760;-79
2021/05/10 10:42:44;;;;;;;6.30;1.90;;;;;;;26.46;25.72;98725.16;2213627;79;22890;-79
2021/05/10 10:45:56;;;;;;;6.42;2.30;;;;;;;26.37;26.34;98731.01;2259714;79;22229;-78
2021/05/10 10:49:06;;;;;;;4.50;1.57;;;;;;;26.59;26.07;98729.36;2262693;79;22649;-79
2021/05/10 10:52:15;;;;;;;3.15;1.77;;;;;;;26.71;25.72;98724.67;2261944;79;22773;-79
2021/05/10 10:55:27;;;;;;;14.80;2.47;;;;;;;26.90;25.25;98728.55;2213234;79;23180;-80
2021/05/10 10:58:39;;;;;;;7.90;2.10;;;;;;;27.15;25.84;98730.25;2239823;79;27967;-80
2021/05/10 11:01:50;;;;;;;2.22;1.52;;;;;;;27.67;24.91;98727.72;2213535;79;22705;-80
2021/05/10 11:05:00;;;;;;;2.02;1.60;;;;;;;27.47;24.34;98728.86;2263077;79;22791;-81
2021/05/10 11:08:14;;;;;;;157.25;14.47;;;;;;;27.28;25.17;98726.39;2299844;77;22891;-79
2021/05/10 11:11:24;;;;;;;5.93;1.60;;;;;;;27.21;24.43;98730.38;2276773;77;27942;-79
2021/05/10 11:14:40;;;;;;;3.45;1.82;;;;;;;27.51;24.42;98719.69;2269679;78;22470;-80
2021/05/10 11:17:51;;;;;;;2.10;1.70;;;;;;;27.44;23.99;98711.63;2276714;77;27916;-81
2021/05/10 11:21:02;;;;;;;3.95;1.62;;;;;;;27.62;24.32;98709.22;2213043;79;23228;-81
2021/05/10 11:24:17;;;;;;;3.33;1.60;;;;;;;27.46;24.41;98710.58;2211325;79;22906;-81
2021/05/10 11:27:31;;;;;;;3.80;1.73;;;;;;;27.57;24.59;98720.19;2243031;79;27676;-79
2021/05/10 11:30:42;;;;;;;2.77;1.32;;;;;;;28.08;24.14;98718.54;2212991;79;22895;-80
2021/05/10 11:33:51;;;;;;;11.93;1.95;;;;;;;27.82;24.23;98720.99;2212625;79;22753;-77
2021/05/10 11:37:02;;;;;;;22.22;3.10;;;;;;;27.89;24.06;98713.44;2262215;79;22801;-81
2021/05/10 11:40:16;;;;;;;4.30;1.60;;;;;;;28.13;24.12;98709.73;2242636;79;27989;-78
2021/05/10 11:43:26;;;;;;;6.83;1.85;;;;;;;28.55;23.11;98712.44;2213551;79;22922;-79
2021/05/10 11:46:36;;;;;;;3.27;1.70;;;;;;;28.44;22.47;98708.23;2297215;77;22795;-80
2021/05/10 11:49:46;;;;;;;2.33;1.50;;;;;;;28.43;23.41;98713.70;2213462;79;22402;-80
2021/05/10 11:52:56;;;;;;;1.60;1.50;;;;;;;28.24;22.96;98708.62;2213572;79;22876;-79
2021/05/10 11:56:06;;;;;;;2.35;1.50;;;;;;;27.89;22.96;98704.91;2302305;77;22936;-79
2021/05/10 11:59:35;;;;;;;3.25;1.57;;;;;;;27.95;23.41;98700.98;2276303;77;22890;-80
2021/05/10 12:02:48;;;;;;;3.33;1.42;;;;;;;28.13;23.82;98699.86;2297191;77;22840;-80
2021/05/10 12:05:58;;;;;;;4.12;1.77;;;;;;;28.14;23.57;98698.04;2288021;76;27936;-79
2021/05/10 12:09:17;;;;;;;2.42;1.55;;;;;;;28.57;23.31;98701.60;2303463;77;22826;-80
2021/05/10 12:12:28;;;;;;;3.60;1.60;;;;;;;28.47;22.68;98699.13;2300230;77;22812;-80
2021/05/10 12:15:41;;;;;;;3.98;1.37;;;;;;;28.43;23.38;98687.72;2213468;79;22897;-79
2021/05/10 12:18:51;;;;;;;4.45;1.87;;;;;;;28.60;23.51;98677.23;2275911;77;22579;-80
2021/05/10 12:22:01;;;;;;;6.42;1.50;;;;;;;28.69;23.11;98686.56;2212707;79;23212;-80
2021/05/10 12:25:11;;;;;;;49.67;6.92;;;;;;;28.55;22.67;98679.36;2261079;77;22889;-79
2021/05/10 12:28:21;;;;;;;20.10;2.83;;;;;;;28.54;23.17;98676.30;2212207;79;23268;-81
2021/05/10 12:31:36;;;;;;;4.08;1.42;;;;;;;28.63;22.31;98681.59;2213018;79;22887;-78
2021/05/10 12:34:43;;;;;;;4.40;1.65;;;;;;;28.73;22.33;98677.34;2193345;79;28093;-79
2021/05/10 12:37:52;;;;;;;3.58;1.37;;;;;;;29.14;21.75;98668.80;2296636;77;22844;-79
2021/05/10 12:41:02;;;;;;;7.70;1.90;;;;;;;29.02;22.18;98661.56;2262533;79;22738;-81
2021/05/10 12:44:12;;;;;;;6.15;1.80;;;;;;;29.05;22.12;98660.01;2212443;79;23219;-79
2021/05/10 12:47:23;;;;;;;15.50;2.87;;;;;;;28.94;22.11;98659.86;2212581;79;22900;-81
2021/05/10 12:50:34;;;;;;;3.40;1.40;;;;;;;28.89;21.94;98645.87;2299084;77;22876;-79
2021/05/10 12:53:52;;;;;;;3.17;1.50;;;;;;;28.77;22.46;98650.67;2296506;77;22411;-80
2021/05/10 12:56:59;;;;;;;4.35;1.72;;;;;;;28.72;22.81;98652.31;2239014;79;28108;-79
2021/05/10 13:00:11;;;;;;;6.17;1.57;;;;;;;28.71;25.40;98651.06;2213025;79;22448;-79
2021/05/10 13:03:21;;;;;;;3.58;1.37;;;;;;;28.46;22.22;98656.64;2261913;79;22827;-79
2021/05/10 13:06:30;;;;;;;3.55;1.55;;;;;;;28.48;22.72;98661.91;2213134;79;22867;-77
2021/05/10 13:09:41;;;;;;;9.93;2.00;;;;;;;28.64;22.99;98663.17;2296641;77;22898;-78
2021/05/10 13:12:52;;;;;;;2.72;1.27;;;;;;;28.83;22.53;98665.04;2296727;77;22253;-78
2021/05/10 13:16:07;;;;;;;2.95;1.80;;;;;;;29.02;21.77;98662.03;2211175;79;22891;-78
2021/05/10 13:19:34;;;;;;;4.00;1.60;;;;;;;28.98;22.42;98660.52;2262076;79;22562;-78
2021/05/10 13:33:04;;;;;;;3.55;1.80;;;;;;;28.89;22.07;98648.55;2212882;79;23013;-79
2021/05/10 13:36:19;;;;;;;19.23;3.47;;;;;;;29.05;22.18;98640.34;2397643;74;22865;-79
2021/05/10 13:39:29;;;;;;;2.40;1.60;;;;;;;29.28;21.70;98637.45;2212675;79;22897;-78
2021/05/10 13:42:40;;;;;;;1.60;1.50;;;;;;;29.48;22.25;98637.88;2262237;79;22481;-79
2021/05/10 13:45:56;;;;;;;4.70;1.75;;;;;;;29.70;21.81;98635.91;2211057;79;22354;-79
2021/05/10 13:49:05;;;;;;;2.70;1.47;;;;;;;29.80;21.66;98632.09;2212993;79;23344;-79
2021/05/10 13:52:15;;;;;;;6.97;2.15;;;;;;;29.61;21.84;98634.34;2298728;77;22499;-79
2021/05/10 13:55:25;;;;;;;5.25;1.98;;;;;;;29.50;21.48;98632.88;2301914;77;22546;-79
2021/05/10 13:58:36;;;;;;;1.77;1.60;;;;;;;29.39;21.60;98629.52;2212772;79;23364;-79
2021/05/10 14:01:46;;;;;;;4.97;1.70;;;;;;;29.30;22.10;98626.97;2238923;79;28087;-79
2021/05/10 14:04:55;;;;;;;2.83;1.80;;;;;;;29.35;21.83;98625.31;2296541;77;22387;-79
2021/05/10 14:08:05;;;;;;;3.42;1.60;;;;;;;29.05;21.70;98616.16;2212329;79;22396;-78
2021/05/10 14:11:15;;;;;;;3.25;1.52;;;;;;;28.74;21.57;98618.16;2262205;78;22803;-79
2021/05/10 14:14:30;;;;;;;2.27;1.70;;;;;;;28.40;22.26;98632.88;2211867;79;22901;-79
2021/05/10 14:17:40;;;;;;;6.25;2.12;;;;;;;28.47;23.16;98630.18;2212996;79;22435;-79
2021/05/10 14:24:18;;;;;;;1.50;1.25;;;;;;;29.04;22.85;98608.58;2261688;79;22799;-78
2021/05/10 14:27:28;;;;;;;2.10;1.72;;;;;;;29.18;21.99;98609.84;2262073;79;22799;-77
2021/05/10 14:30:37;;;;;;;1.75;1.50;;;;;;;29.01;22.42;98620.87;2275338;77;22526;-79
2021/05/10 14:33:53;;;;;;;3.05;1.60;;;;;;;28.91;22.55;98612.19;2302644;77;22387;-78
2021/05/10 14:37:03;;;;;;;1.70;1.50;;;;;;;29.11;22.37;98613.91;2261393;79;22490;-79
2021/05/10 14:40:16;;;;;;;3.30;1.55;;;;;;;29.31;22.19;98609.88;2327595;76;22235;-79
2021/05/10 14:43:26;;;;;;;5.40;1.85;;;;;;;29.50;22.08;98606.84;2212902;79;22925;-78
2021/05/10 14:46:36;;;;;;;3.70;1.65;;;;;;;29.42;22.50;98612.69;2275312;77;22598;-78
2021/05/10 14:49:48;;;;;;;3.15;1.77;;;;;;;29.15;21.94;98606.50;2211639;79;22945;-78
2021/05/10 14:52:58;;;;;;;2.30;1.45;;;;;;;29.23;22.44;98601.95;2296180;77;22854;-78
2021/05/10 14:56:09;;;;;;;3.70;1.70;;;;;;;29.27;22.11;98604.81;2287000;76;27935;-78
2021/05/10 14:59:19;;;;;;;3.55;1.77;;;;;;;29.48;22.02;98606.09;2261918;79;22222;-79
2021/05/10 15:02:35;;;;;;;14.87;3.37;;;;;;;29.41;22.26;98608.77;2376670;74;27856;-79
2021/05/10 15:05:46;;;;;;;5.58;1.75;;;;;;;29.80;21.46;98599.33;2262045;78;22153;-79
2021/05/10 15:08:55;;;;;;;1.67;1.57;;;;;;;29.92;21.94;98604.81;2262155;79;22748;-79
2021/05/10 15:12:10;;;;;;;4.00;1.98;;;;;;;29.98;21.33;98613.80;2262070;79;22507;-78
2021/05/10 15:15:19;;;;;;;2.27;1.62;;;;;;;29.96;21.13;98608.52;2212886;79;22440;-80
2021/05/10 15:18:29;;;;;;;3.77;1.90;;;;;;;29.85;20.86;98598.14;2262236;78;22388;-78
2021/05/10 15:21:39;;;;;;;3.58;1.42;;;;;;;29.68;21.35;98597.50;2298819;77;22698;-79
2021/05/10 15:24:48;;;;;;;6.25;1.72;;;;;;;29.51;21.46;98605.88;2275057;77;22410;-79
2021/05/10 15:28:17;;;;;;;4.42;1.87;;;;;;;29.05;21.60;98604.06;2309703;77;22722;-80
2021/05/10 15:31:27;;;;;;;3.30;1.70;;;;;;;28.66;21.70;98600.34;2212482;79;22583;-80
2021/05/10 15:34:39;;;;;;;4.33;1.82;;;;;;;28.42;22.50;98608.14;2275728;77;22892;-80
2021/05/10 15:37:49;;;;;;;3.90;1.90;;;;;;;28.32;22.23;98608.34;2276382;77;27911;-80
2021/05/10 15:40:59;;;;;;;1.72;1.62;;;;;;;28.43;22.12;98613.89;2212735;79;22894;-79